• Join FlightAware (Why Join?)
  • Login
  • US Flag 
02:06PM EDT


 

Airport Tracker/Info


-or-


 

Live Flight TrackerFlight Track Log ✈ EJA831 ✈ 20-Jul-2013 ✈ KHTO - KPHL

Flight Track Log - Related Links

Times and Time Zones

All times are in EDT time to prevent confusion due to time zone crossing. See the EJA831 flight status page for this flight to view local times or setup timezone preferences in your user account.

Time Position Orientation Groundspeed Altitude Reporting Facility
EDT Latitude Longitude Course Direction KTS MPH feet Rate Location/Type
03:58PM 40.9500 -72.2833 217° Southwest 176 203 1,300  Level New York TRACON
03:59PM 40.9000 -72.3333 217° Southwest 196 226 4,400 2,460 Climbing New York TRACON
04:00PM 40.8625 -72.3825 225° Southwest 248 285 6,200 2,400 Climbing Boston Center
04:01PM 40.8061 -72.4511 223° Southwest 248 285 9,200 1,680 Climbing Boston Center
04:02PM 40.7497 -72.5194 223° Southwest 266 306 9,900 540 Climbing Boston Center
04:03PM 40.6831 -72.6017 223° Southwest 272 313 10,500 1,500 Climbing Boston Center
04:06PM 40.5342 -72.7864 223° Southwest 299 344 15,600 1,560 Climbing New York Center
04:07PM 40.4681 -72.8689 224° Southwest 328 377 16,000 180 Climbing New York Center
04:08PM 40.3936 -72.9567 222° Southwest 330 380 16,000  Level New York Center
04:09PM 40.3339 -73.0283 222° Southwest 325 374 16,000  Level New York Center
04:10PM 40.2592 -73.1183 223° Southwest 331 381 16,000  Level New York Center
04:11PM 40.1972 -73.1922 222° Southwest 331 381 16,000  Level New York Center
04:12PM 40.1225 -73.2819 223° Southwest 331 381 16,000  Level New York Center
04:13PM 40.0539 -73.3633 222° Southwest 331 381 16,000 -60 Level New York Center
04:14PM 39.9853 -73.4503 224° Southwest 331 381 15,900 -60 Descending New York Center
04:15PM 39.9192 -73.5181 218° Southwest 331 381 15,900  Level New York Center
04:16PM 39.8608 -73.6050 229° Southwest 331 381 15,900  Level New York Center
04:17PM 39.8022 -73.6972 230° Southwest 331 381 15,900  Level New York Center
04:18PM 39.7478 -73.7894 233° Southwest 336 387 16,000  Climbing New York Center
04:18PM 39.7111 -73.8436 229° Southwest 328 377 15,900 -120 Descending Washington Center
04:19PM 39.6542 -73.9339 231° Southwest 323 372 15,900  Level Washington Center